Time;durP1;ratioP1;P1;durP2;ratioP2;P2;SDS_P1;SDS_P2;PMS_P1;PMS_P2;Temp;Humidity;BMP_temperature;BMP_pressure;BME280_temperature;BME280_humidity;BME280_pressure;Samples;Min_cycle;Max_cycle;Signal;HPM_P1;HPM_P2
2024/01/06 00:01:46;;;;;;;1.70;1.00;;;21.20;39.00;;;;;;5004747;28;20037;-61
2024/01/06 00:04:11;;;;;;;0.82;0.80;;;21.20;39.00;;;;;;5004218;28;20038;-61
2024/01/06 00:06:37;;;;;;;0.70;0.70;;;21.20;39.00;;;;;;5004082;28;20073;-62
2024/01/06 00:09:03;;;;;;;0.85;0.70;;;21.20;38.90;;;;;;5000607;28;20027;-61
2024/01/06 00:11:29;;;;;;;0.85;0.70;;;21.10;38.90;;;;;;5013067;28;20061;-62
2024/01/06 00:13:54;;;;;;;1.52;1.00;;;21.10;38.90;;;;;;4989722;28;20046;-63
2024/01/06 00:16:20;;;;;;;0.70;0.70;;;21.10;38.90;;;;;;5000250;28;20442;-61
2024/01/06 00:18:47;;;;;;;0.98;0.90;;;21.10;38.80;;;;;;5005321;28;20113;-61
2024/01/06 00:21:13;;;;;;;0.80;0.75;;;21.10;38.90;;;;;;5004928;28;20081;-62
2024/01/06 00:23:42;;;;;;;0.70;0.70;;;21.10;38.80;;;;;;5006307;28;20368;-62
2024/01/06 00:26:09;;;;;;;0.63;0.63;;;21.10;38.80;;;;;;5005597;28;20018;-61
2024/01/06 00:28:35;;;;;;;1.77;0.77;;;21.10;38.80;;;;;;5004329;28;20044;-61
2024/01/06 00:31:01;;;;;;;0.70;0.70;;;21.10;38.70;;;;;;5005917;28;20500;-62
2024/01/06 00:33:26;;;;;;;0.95;0.85;;;21.10;38.70;;;;;;5002747;28;20473;-61
2024/01/06 00:35:53;;;;;;;0.88;0.75;;;21.10;38.70;;;;;;5010242;28;20038;-61
2024/01/06 00:38:19;;;;;;;0.75;0.75;;;21.10;38.70;;;;;;5007750;28;20069;-60
2024/01/06 00:40:45;;;;;;;0.70;0.70;;;21.10;38.70;;;;;;5003015;28;20080;-61
2024/01/06 00:43:11;;;;;;;0.70;0.70;;;21.10;38.70;;;;;;5007120;28;20113;-61
2024/01/06 00:45:37;;;;;;;0.98;0.85;;;21.10;38.60;;;;;;5006514;28;20511;-61
2024/01/06 00:48:04;;;;;;;1.02;0.82;;;21.10;38.60;;;;;;5004612;28;20033;-61
2024/01/06 00:50:30;;;;;;;0.85;0.70;;;21.10;38.60;;;;;;5002319;28;20369;-61
2024/01/06 00:52:56;;;;;;;0.60;0.60;;;21.10;38.50;;;;;;5001154;28;20026;-62
2024/01/06 00:55:23;;;;;;;0.60;0.60;;;21.00;38.50;;;;;;5008049;28;20060;-61
2024/01/06 00:57:50;;;;;;;1.75;0.80;;;21.00;38.50;;;;;;5014078;28;20092;-61
2024/01/06 01:00:16;;;;;;;0.60;0.60;;;21.00;38.50;;;;;;5000829;28;20042;-61
2024/01/06 01:02:41;;;;;;;0.90;0.73;;;21.00;38.50;;;;;;5002129;28;20440;-61
2024/01/06 01:05:07;;;;;;;0.77;0.65;;;21.00;38.50;;;;;;5006214;28;20048;-62
2024/01/06 01:07:34;;;;;;;0.70;0.70;;;21.00;38.50;;;;;;4997426;28;20092;-61
2024/01/06 01:09:59;;;;;;;0.63;0.63;;;21.00;38.50;;;;;;5008340;28;20030;-61
2024/01/06 01:12:25;;;;;;;0.70;0.70;;;21.00;38.40;;;;;;5007010;28;20054;-62
2024/01/06 01:14:52;;;;;;;0.70;0.68;;;21.00;38.50;;;;;;5006826;28;20037;-60
2024/01/06 01:17:18;;;;;;;1.02;0.80;;;21.00;38.40;;;;;;5002217;28;20034;-60
2024/01/06 01:19:44;;;;;;;0.80;0.80;;;21.00;38.40;;;;;;5004044;28;20026;-61
2024/01/06 01:22:10;;;;;;;1.10;0.90;;;21.00;38.40;;;;;;5009531;28;20470;-60
2024/01/06 01:24:36;;;;;;;0.70;0.70;;;20.90;39.00;;;;;;5006883;28;20126;-61
2024/01/06 01:27:02;;;;;;;0.70;0.70;;;20.90;38.40;;;;;;5005049;28;20023;-60
2024/01/06 01:29:28;;;;;;;0.65;0.60;;;20.90;38.40;;;;;;5006439;28;20065;-60
2024/01/06 01:31:54;;;;;;;0.93;0.60;;;20.90;38.40;;;;;;4998880;28;20027;-61
2024/01/06 01:34:19;;;;;;;0.45;0.45;;;20.90;38.40;;;;;;5000743;28;20038;-61
2024/01/06 01:36:46;;;;;;;0.73;0.70;;;20.90;38.40;;;;;;5004599;28;20388;-61
2024/01/06 01:39:12;;;;;;;0.60;0.60;;;20.90;38.40;;;;;;5010559;28;20026;-61
2024/01/06 01:41:38;;;;;;;0.75;0.75;;;20.90;38.40;;;;;;4999460;28;20034;-61
2024/01/06 01:44:04;;;;;;;0.57;0.57;;;20.90;38.40;;;;;;5000357;28;20034;-62
2024/01/06 01:46:30;;;;;;;0.60;0.60;;;20.90;38.40;;;;;;5004657;28;20404;-62
2024/01/06 01:48:57;;;;;;;0.90;0.60;;;20.90;38.40;;;;;;4997339;28;20457;-62
2024/01/06 01:51:27;;;;;;;0.70;0.70;;;20.90;38.40;;;;;;5007282;28;20036;-61
2024/01/06 01:53:53;;;;;;;0.60;0.60;;;20.90;38.40;;;;;;4997492;28;20030;-61
2024/01/06 01:56:20;;;;;;;0.70;0.63;;;20.90;38.40;;;;;;5003565;28;20030;-61
2024/01/06 01:58:46;;;;;;;0.80;0.80;;;20.90;38.40;;;;;;5005177;28;20469;-61
2024/01/06 02:01:12;;;;;;;0.90;0.70;;;20.80;38.40;;;;;;4999942;28;20398;-61
2024/01/06 02:03:43;;;;;;;1.20;0.70;;;20.80;38.30;;;;;;5001084;28;20438;-60
2024/01/06 02:06:09;;;;;;;0.70;0.63;;;20.80;38.40;;;;;;5007392;28;20058;-60
2024/01/06 02:08:35;;;;;;;0.70;0.70;;;20.80;38.40;;;;;;5006022;28;20438;-60
2024/01/06 02:11:01;;;;;;;0.73;0.57;;;20.90;38.40;;;;;;5003410;28;20065;-61
2024/01/06 02:13:37;;;;;;;0.70;0.50;;;20.90;38.40;;;;;;5003608;28;20018;-61
2024/01/06 02:16:04;;;;;;;0.93;0.77;;;20.80;38.30;;;;;;5005560;28;20125;-61
2024/01/06 02:18:33;;;;;;;0.60;0.50;;;20.80;38.30;;;;;;5001908;28;20033;-61
2024/01/06 02:21:01;;;;;;;0.60;0.60;;;20.80;38.30;;;;;;5001664;28;20472;-60
2024/01/06 02:23:28;;;;;;;0.73;0.73;;;20.80;38.30;;;;;;4996830;28;20065;-60
2024/01/06 02:25:54;;;;;;;0.60;0.60;;;20.80;38.30;;;;;;5006851;28;20091;-60
2024/01/06 02:28:20;;;;;;;0.75;0.75;;;20.80;38.30;;;;;;4997749;28;20034;-60
2024/01/06 02:30:46;;;;;;;0.95;0.80;;;20.80;38.30;;;;;;5003445;28;20026;-60
2024/01/06 02:33:12;;;;;;;0.88;0.80;;;20.70;38.30;;;;;;5006138;28;20025;-61
2024/01/06 02:35:39;;;;;;;2.08;1.05;;;20.80;38.30;;;;;;4999167;28;20352;-61
2024/01/06 02:38:05;;;;;;;1.00;0.90;;;20.70;38.30;;;;;;4999176;28;20034;-61
2024/01/06 02:40:32;;;;;;;0.90;0.80;;;20.70;38.30;;;;;;5003620;28;20069;-60
2024/01/06 02:42:58;;;;;;;1.08;0.90;;;20.70;38.20;;;;;;5002031;28;20030;-62
2024/01/06 02:45:24;;;;;;;1.20;0.93;;;20.70;38.20;;;;;;5003160;28;20033;-60
2024/01/06 02:47:50;;;;;;;1.08;0.80;;;20.70;38.20;;;;;;5006656;28;20373;-60
2024/01/06 02:50:16;;;;;;;1.35;1.10;;;20.70;38.20;;;;;;5003280;28;20464;-60
2024/01/06 02:52:44;;;;;;;0.90;0.85;;;20.70;38.20;;;;;;5000484;28;20030;-60
2024/01/06 02:55:09;;;;;;;0.80;0.70;;;20.70;38.20;;;;;;5007648;28;20048;-60
2024/01/06 02:57:36;;;;;;;0.90;0.80;;;20.70;38.20;;;;;;5003095;28;20030;-60
2024/01/06 03:00:03;;;;;;;0.85;0.77;;;20.70;38.20;;;;;;5004490;28;20448;-60
2024/01/06 03:02:29;;;;;;;1.00;0.90;;;20.70;38.20;;;;;;5000877;28;20030;-61
2024/01/06 03:04:55;;;;;;;0.98;0.90;;;20.70;38.20;;;;;;5005581;28;20406;-60
2024/01/06 03:07:21;;;;;;;1.10;1.00;;;20.70;38.20;;;;;;5002423;28;20380;-60
2024/01/06 03:09:46;;;;;;;1.05;0.80;;;20.70;38.80;;;;;;5003229;28;20080;-60
2024/01/06 03:12:12;;;;;;;1.20;0.82;;;20.60;38.10;;;;;;4997483;28;20046;-62
2024/01/06 03:14:38;;;;;;;1.20;0.90;;;20.60;38.20;;;;;;5008827;28;20037;-60
2024/01/06 03:17:04;;;;;;;1.10;1.00;;;20.70;38.10;;;;;;5001583;28;20088;-61
2024/01/06 03:19:33;;;;;;;0.65;0.63;;;20.70;38.10;;;;;;5004404;28;20109;-60
2024/01/06 03:21:59;;;;;;;0.88;0.80;;;20.60;38.10;;;;;;5004985;28;20050;-60
2024/01/06 03:24:26;;;;;;;1.20;0.90;;;20.70;38.10;;;;;;4998877;28;20027;-61
2024/01/06 03:26:52;;;;;;;1.00;0.90;;;20.60;38.10;;;;;;5005458;28;20101;-61
2024/01/06 03:29:18;;;;;;;0.70;0.70;;;20.60;38.10;;;;;;5001358;28;20126;-60
2024/01/06 03:31:45;;;;;;;1.02;0.90;;;20.60;38.10;;;;;;5001939;28;20432;-61
2024/01/06 03:34:11;;;;;;;1.30;1.00;;;20.60;38.10;;;;;;5002445;28;20096;-60
2024/01/06 03:36:40;;;;;;;1.75;0.90;;;20.60;38.10;;;;;;5003042;28;20029;-60
2024/01/06 03:39:07;;;;;;;0.75;0.60;;;20.60;38.00;;;;;;5005406;28;20041;-61
2024/01/06 03:41:33;;;;;;;1.10;0.70;;;20.60;38.10;;;;;;5007087;28;20022;-60
2024/01/06 03:43:59;;;;;;;1.23;0.88;;;20.60;38.00;;;;;;5002677;28;20433;-61
2024/01/06 03:46:24;;;;;;;1.13;0.77;;;20.60;38.00;;;;;;5009008;28;20026;-60
2024/01/06 03:48:50;;;;;;;0.80;0.70;;;20.60;38.00;;;;;;4999700;28;20041;-60
2024/01/06 03:51:16;;;;;;;1.00;0.90;;;20.60;38.00;;;;;;5002048;28;20454;-62
2024/01/06 03:53:42;;;;;;;1.20;0.80;;;20.50;38.00;;;;;;5000070;28;20022;-61
2024/01/06 03:56:08;;;;;;;1.17;1.00;;;20.50;38.00;;;;;;4995922;28;20350;-60
2024/01/06 03:58:34;;;;;;;1.05;0.80;;;20.60;38.00;;;;;;5006597;28;20113;-61
2024/01/06 04:01:00;;;;;;;1.00;0.90;;;20.50;38.00;;;;;;5000645;28;20022;-61
2024/01/06 04:03:26;;;;;;;2.10;1.00;;;20.50;38.00;;;;;;5002609;28;20048;-61
2024/01/06 04:05:52;;;;;;;1.40;0.90;;;20.50;38.00;;;;;;5001174;28;20030;-61
2024/01/06 04:08:18;;;;;;;0.80;0.75;;;20.50;38.00;;;;;;5002217;28;20060;-63
2024/01/06 04:10:44;;;;;;;1.13;0.73;;;20.50;38.00;;;;;;5003820;28;20062;-62
2024/01/06 04:13:13;;;;;;;0.90;0.80;;;20.50;38.00;;;;;;5004838;28;20045;-61
2024/01/06 04:15:39;;;;;;;1.00;0.80;;;20.50;37.90;;;;;;5004615;28;20081;-61
2024/01/06 04:18:05;;;;;;;0.88;0.80;;;20.50;38.00;;;;;;5005295;28;20639;-61
2024/01/06 04:20:32;;;;;;;1.20;1.00;;;20.50;37.90;;;;;;5007067;28;20034;-61
2024/01/06 04:22:58;;;;;;;1.50;0.90;;;20.50;37.90;;;;;;5002908;28;20118;-61
2024/01/06 04:25:24;;;;;;;0.93;0.85;;;20.50;37.90;;;;;;5003915;28;20389;-61
2024/01/06 04:27:50;;;;;;;1.17;0.80;;;20.50;37.90;;;;;;5002428;28;20026;-61
2024/01/06 04:30:17;;;;;;;0.80;0.80;;;20.50;37.90;;;;;;5004565;28;20091;-61
2024/01/06 04:32:42;;;;;;;1.00;0.75;;;20.50;37.90;;;;;;5008017;28;20028;-61
2024/01/06 04:35:09;;;;;;;0.77;0.77;;;20.40;37.90;;;;;;5007254;28;20042;-61
2024/01/06 04:37:35;;;;;;;1.52;0.93;;;20.50;37.90;;;;;;5007923;28;20472;-61
2024/01/06 04:40:01;;;;;;;0.93;0.80;;;20.50;37.90;;;;;;5003424;28;20022;-62
2024/01/06 04:42:27;;;;;;;1.15;1.00;;;20.50;37.90;;;;;;5006545;28;20056;-61
2024/01/06 04:44:53;;;;;;;1.20;0.88;;;20.40;37.80;;;;;;5002158;28;20080;-60
2024/01/06 04:47:18;;;;;;;1.33;1.00;;;20.40;37.90;;;;;;5001682;28;20038;-61
2024/01/06 04:49:45;;;;;;;1.13;0.90;;;20.40;37.90;;;;;;5006656;28;20052;-61
2024/01/06 04:52:11;;;;;;;1.20;1.00;;;20.40;37.90;;;;;;5000989;28;20109;-60
2024/01/06 04:54:36;;;;;;;1.10;1.00;;;20.40;37.90;;;;;;5001477;28;20042;-60
2024/01/06 04:57:04;;;;;;;1.10;1.00;;;20.40;37.90;;;;;;5000461;28;20033;-60
2024/01/06 04:59:30;;;;;;;0.77;0.77;;;20.40;37.80;;;;;;5005170;28;20160;-60
2024/01/06 05:01:57;;;;;;;1.52;1.00;;;20.40;37.80;;;;;;5002934;28;20034;-61
2024/01/06 05:04:23;;;;;;;1.45;0.88;;;20.40;37.80;;;;;;5005095;28;20330;-61
2024/01/06 05:06:54;;;;;;;0.88;0.80;;;20.40;37.80;;;;;;5001737;28;20045;-61
2024/01/06 05:09:20;;;;;;;0.98;0.52;;;20.40;37.80;;;;;;4998940;28;20137;-61
2024/01/06 05:11:45;;;;;;;1.27;0.90;;;20.40;37.80;;;;;;5001506;28;20496;-61
2024/01/06 05:14:12;;;;;;;0.80;0.60;;;20.40;37.80;;;;;;5003884;28;20038;-60
2024/01/06 05:16:37;;;;;;;0.90;0.80;;;20.40;37.80;;;;;;5001509;28;20124;-60
2024/01/06 05:19:03;;;;;;;1.05;0.80;;;20.40;37.70;;;;;;5005759;28;20454;-62
2024/01/06 05:21:32;;;;;;;1.17;0.63;;;20.40;37.70;;;;;;5004388;28;20022;-61
2024/01/06 05:23:59;;;;;;;0.90;0.80;;;20.40;37.70;;;;;;5006934;28;20032;-60
2024/01/06 05:26:25;;;;;;;0.55;0.55;;;20.30;37.60;;;;;;5008479;28;20069;-61
2024/01/06 05:28:52;;;;;;;0.75;0.70;;;20.30;37.60;;;;;;5003607;28;20125;-61
2024/01/06 05:31:18;;;;;;;0.98;0.52;;;20.30;37.60;;;;;;5005559;28;20033;-60
2024/01/06 05:33:43;;;;;;;1.05;0.80;;;20.30;37.60;;;;;;5005637;28;20033;-60
2024/01/06 05:36:09;;;;;;;0.80;0.70;;;20.30;37.60;;;;;;5007159;28;20050;-60
2024/01/06 05:38:36;;;;;;;0.98;0.60;;;20.30;37.60;;;;;;4999940;28;20422;-61
2024/01/06 05:41:02;;;;;;;0.80;0.52;;;20.30;37.60;;;;;;5006537;28;20036;-61
2024/01/06 05:43:28;;;;;;;1.00;0.80;;;20.30;37.60;;;;;;5004485;28;20101;-60
2024/01/06 05:45:54;;;;;;;0.70;0.65;;;20.30;37.60;;;;;;5005682;28;20422;-60
2024/01/06 05:48:19;;;;;;;1.20;0.80;;;20.30;37.60;;;;;;4999072;28;20018;-61
2024/01/06 05:50:46;;;;;;;0.85;0.75;;;20.30;37.60;;;;;;5006267;28;20390;-60
2024/01/06 05:53:14;;;;;;;1.38;0.50;;;20.30;37.60;;;;;;5000131;28;20076;-60
2024/01/06 05:55:39;;;;;;;0.85;0.63;;;20.30;37.50;;;;;;5005091;28;20120;-60
2024/01/06 05:58:05;;;;;;;0.75;0.57;;;20.30;37.50;;;;;;5003980;28;20101;-61
2024/01/06 06:00:31;;;;;;;0.95;0.70;;;20.30;37.50;;;;;;5002821;28;20029;-60
2024/01/06 06:02:57;;;;;;;0.82;0.70;;;20.30;37.50;;;;;;5005222;28;20022;-60
2024/01/06 06:05:23;;;;;;;1.33;0.63;;;20.30;37.50;;;;;;5003455;28;20046;-61
2024/01/06 06:07:49;;;;;;;0.93;0.70;;;20.30;37.50;;;;;;4997339;28;20055;-61
2024/01/06 06:10:16;;;;;;;0.93;0.68;;;20.30;37.50;;;;;;5004759;28;20030;-60
2024/01/06 06:12:41;;;;;;;1.20;0.68;;;20.20;37.40;;;;;;5002684;28;20453;-60
2024/01/06 06:15:07;;;;;;;1.08;0.95;;;20.30;37.50;;;;;;5004245;28;20080;-60
2024/01/06 06:17:34;;;;;;;0.60;0.60;;;20.20;37.40;;;;;;4997272;28;20025;-61
2024/01/06 06:20:00;;;;;;;1.15;0.75;;;20.20;37.40;;;;;;5005695;28;20054;-61
2024/01/06 06:22:29;;;;;;;1.05;0.63;;;20.30;37.40;;;;;;5003721;28;20449;-60
2024/01/06 06:24:56;;;;;;;1.00;0.80;;;20.20;37.30;;;;;;5002882;28;20097;-60
2024/01/06 06:27:23;;;;;;;1.75;1.00;;;20.20;37.40;;;;;;5006255;28;20084;-61
2024/01/06 06:29:48;;;;;;;0.77;0.60;;;20.20;37.30;;;;;;4996678;28;20026;-60
2024/01/06 06:32:14;;;;;;;0.75;0.68;;;20.20;37.30;;;;;;5000403;28;20085;-60
2024/01/06 06:34:40;;;;;;;1.20;0.70;;;20.20;37.30;;;;;;5003299;28;20034;-61
2024/01/06 06:37:06;;;;;;;0.80;0.80;;;20.20;37.30;;;;;;4999903;28;20061;-61
2024/01/06 06:39:34;;;;;;;1.08;0.80;;;20.20;37.30;;;;;;4997216;28;20034;-61
2024/01/06 06:42:00;;;;;;;1.20;0.90;;;20.20;37.30;;;;;;5007721;28;20037;-61
2024/01/06 06:44:25;;;;;;;0.85;0.60;;;20.20;37.30;;;;;;5002444;28;20052;-60
2024/01/06 06:46:51;;;;;;;0.70;0.70;;;20.20;37.30;;;;;;4999093;28;21619;-61
2024/01/06 06:49:17;;;;;;;1.55;0.80;;;20.10;37.20;;;;;;4987340;28;20476;-60
2024/01/06 06:51:46;;;;;;;0.80;0.60;;;20.10;37.20;;;;;;5003452;28;20105;-59
2024/01/06 06:54:13;;;;;;;1.38;0.80;;;20.10;37.20;;;;;;5004452;28;20042;-59
2024/01/06 06:56:39;;;;;;;1.02;0.77;;;20.10;37.20;;;;;;5003157;28;20036;-60
2024/01/06 06:59:05;;;;;;;0.80;0.80;;;20.10;37.20;;;;;;5005752;28;20121;-60
2024/01/06 07:01:31;;;;;;;0.80;0.70;;;20.10;37.10;;;;;;5001363;28;20031;-60
2024/01/06 07:03:57;;;;;;;0.80;0.80;;;20.10;37.10;;;;;;5006288;28;20045;-61
2024/01/06 07:06:23;;;;;;;0.63;0.60;;;20.10;37.10;;;;;;5003492;28;20484;-60
2024/01/06 07:08:49;;;;;;;1.05;0.80;;;20.10;37.10;;;;;;5005935;28;20037;-61
2024/01/06 07:11:18;;;;;;;0.90;0.60;;;20.10;37.10;;;;;;5000195;28;20473;-62
2024/01/06 07:13:43;;;;;;;0.90;0.45;;;20.10;37.00;;;;;;5000677;28;20031;-60
2024/01/06 07:16:09;;;;;;;1.00;0.60;;;20.10;37.20;;;;;;5001361;28;20042;-61
2024/01/06 07:18:35;;;;;;;0.70;0.70;;;20.10;37.30;;;;;;4997737;28;20022;-60
2024/01/06 07:21:01;;;;;;;0.60;0.60;;;20.10;37.20;;;;;;5002544;28;20112;-60
2024/01/06 07:23:26;;;;;;;0.70;0.63;;;20.10;37.20;;;;;;4997316;28;20038;-60
2024/01/06 07:25:52;;;;;;;0.63;0.60;;;20.10;37.20;;;;;;5007867;28;20033;-60
2024/01/06 07:28:18;;;;;;;0.73;0.63;;;20.10;37.20;;;;;;4996358;28;20023;-61
2024/01/06 07:30:44;;;;;;;0.70;0.60;;;20.10;37.10;;;;;;5005137;28;20053;-61
2024/01/06 07:33:11;;;;;;;0.88;0.65;;;20.10;37.10;;;;;;5000008;28;20048;-61
2024/01/06 07:35:37;;;;;;;0.90;0.60;;;20.10;37.10;;;;;;5001554;28;20042;-62
2024/01/06 07:38:03;;;;;;;0.80;0.60;;;20.10;37.10;;;;;;5006368;28;20504;-62
2024/01/06 07:40:28;;;;;;;0.50;0.50;;;20.10;37.70;;;;;;5005633;28;20034;-61
2024/01/06 07:42:54;;;;;;;0.82;0.70;;;20.00;37.00;;;;;;5006386;28;20092;-60
2024/01/06 07:45:20;;;;;;;0.85;0.60;;;20.00;36.90;;;;;;5004140;28;20058;-60
2024/01/06 07:47:46;;;;;;;1.00;0.90;;;20.00;36.90;;;;;;5003703;28;20400;-61
2024/01/06 07:50:11;;;;;;;0.90;0.70;;;20.00;36.90;;;;;;5009395;28;20017;-60
2024/01/06 07:52:37;;;;;;;0.95;0.80;;;20.10;36.90;;;;;;5011218;28;20436;-60
2024/01/06 07:55:03;;;;;;;1.50;0.68;;;20.00;36.80;;;;;;5008712;28;20045;-60
2024/01/06 07:57:29;;;;;;;1.70;0.90;;;20.00;36.80;;;;;;5005501;28;20038;-61
2024/01/06 07:59:55;;;;;;;0.80;0.57;;;20.00;37.40;;;;;;5003843;28;20101;-60
2024/01/06 08:02:21;;;;;;;0.93;0.70;;;20.00;36.80;;;;;;5004984;28;20018;-60
2024/01/06 08:04:46;;;;;;;0.80;0.63;;;20.00;36.80;;;;;;5013097;28;20026;-61
2024/01/06 08:07:13;;;;;;;1.00;0.80;;;20.00;36.70;;;;;;5005662;28;20069;-60
2024/01/06 08:09:39;;;;;;;0.93;0.82;;;20.00;36.70;;;;;;5003396;28;20077;-60
2024/01/06 08:12:05;;;;;;;1.00;0.80;;;20.00;36.60;;;;;;5003994;28;20101;-61
2024/01/06 08:14:31;;;;;;;0.95;0.70;;;20.00;36.90;;;;;;5004882;28;20042;-59
2024/01/06 08:16:56;;;;;;;1.10;0.82;;;20.00;36.60;;;;;;5004507;28;20022;-61
2024/01/06 08:19:22;;;;;;;1.02;0.80;;;20.00;36.60;;;;;;5005584;28;20361;-61
2024/01/06 08:21:48;;;;;;;0.90;0.75;;;20.00;36.60;;;;;;4998386;28;20448;-61
2024/01/06 08:24:14;;;;;;;1.08;0.80;;;20.00;36.60;;;;;;5000066;28;20041;-60
2024/01/06 08:26:40;;;;;;;0.93;0.70;;;20.00;36.60;;;;;;5006293;28;20306;-61
2024/01/06 08:29:06;;;;;;;1.10;0.80;;;20.00;36.60;;;;;;5004448;28;20041;-61
2024/01/06 08:31:31;;;;;;;0.50;0.50;;;20.00;36.70;;;;;;5006492;28;20022;-64
2024/01/06 08:33:57;;;;;;;0.77;0.65;;;20.00;36.80;;;;;;4999401;28;20038;-60
2024/01/06 08:36:23;;;;;;;1.25;0.73;;;20.00;37.50;;;;;;5006398;28;20058;-60
2024/01/06 08:38:49;;;;;;;0.73;0.55;;;20.00;37.00;;;;;;5003279;28;20034;-61
2024/01/06 08:41:14;;;;;;;1.20;0.70;;;20.10;37.00;;;;;;5004517;28;20030;-62
2024/01/06 08:43:40;;;;;;;1.33;0.88;;;20.10;37.00;;;;;;5009219;28;20088;-62
2024/01/06 08:46:06;;;;;;;0.95;0.80;;;20.10;37.00;;;;;;5004525;28;20413;-62
2024/01/06 08:48:32;;;;;;;1.77;0.70;;;20.20;37.00;;;;;;5001960;28;20022;-65
2024/01/06 08:50:57;;;;;;;1.38;0.95;;;20.20;37.00;;;;;;5004005;28;20108;-61
2024/01/06 08:53:23;;;;;;;0.95;0.70;;;20.30;37.10;;;;;;5002476;28;20027;-61
2024/01/06 08:55:49;;;;;;;1.33;0.70;;;20.30;37.60;;;;;;5004930;28;20475;-61
2024/01/06 08:58:15;;;;;;;0.90;0.70;;;20.30;37.20;;;;;;5004986;28;20109;-62
2024/01/06 09:00:41;;;;;;;1.17;0.80;;;20.40;37.30;;;;;;4999269;28;20100;-62
2024/01/06 09:03:07;;;;;;;1.30;0.80;;;20.40;37.30;;;;;;4996649;28;20092;-64
2024/01/06 09:05:33;;;;;;;1.60;1.00;;;20.40;37.30;;;;;;5006573;28;20050;-62
2024/01/06 09:07:59;;;;;;;1.30;0.70;;;20.50;37.30;;;;;;4999018;28;20064;-62
2024/01/06 09:10:25;;;;;;;0.80;0.80;;;20.50;37.20;;;;;;5006680;28;20054;-62
2024/01/06 09:12:51;;;;;;;1.75;1.00;;;20.50;37.10;;;;;;5002474;28;20053;-62
2024/01/06 09:15:16;;;;;;;1.08;0.70;;;20.50;37.00;;;;;;4996433;28;20381;-63
2024/01/06 09:17:42;;;;;;;0.90;0.80;;;20.50;36.90;;;;;;5003307;28;20083;-63
2024/01/06 09:20:08;;;;;;;1.42;1.02;;;20.60;36.90;;;;;;5002051;28;20030;-62
2024/01/06 09:22:34;;;;;;;1.15;0.80;;;20.60;36.80;;;;;;5006004;28;20398;-63
2024/01/06 09:25:00;;;;;;;1.40;0.90;;;20.70;36.80;;;;;;5008492;28;20121;-63
2024/01/06 09:27:26;;;;;;;1.40;1.05;;;20.60;36.60;;;;;;5000345;28;20145;-62
2024/01/06 09:29:52;;;;;;;1.20;1.00;;;20.60;36.50;;;;;;5005203;28;20018;-64
2024/01/06 09:32:18;;;;;;;1.50;0.90;;;20.60;36.50;;;;;;5005231;28;20432;-62
2024/01/06 09:34:44;;;;;;;1.60;1.20;;;20.70;36.40;;;;;;4997997;28;20077;-63
2024/01/06 09:37:09;;;;;;;1.67;1.00;;;20.70;36.30;;;;;;4999351;28;20045;-63
2024/01/06 09:39:35;;;;;;;1.20;1.00;;;20.70;36.30;;;;;;4999545;28;20339;-62
2024/01/06 09:42:01;;;;;;;1.48;1.10;;;20.70;36.20;;;;;;4999963;28;20026;-62
2024/01/06 09:44:27;;;;;;;1.30;1.10;;;20.70;36.10;;;;;;5000238;28;20441;-62
2024/01/06 09:46:57;;;;;;;1.60;1.10;;;20.70;36.10;;;;;;4996172;28;20026;-63
2024/01/06 09:49:25;;;;;;;2.05;1.27;;;20.80;36.00;;;;;;4997363;28;20033;-62
2024/01/06 09:51:53;;;;;;;1.88;1.20;;;20.80;36.00;;;;;;5000847;28;20037;-62
2024/01/06 09:54:26;;;;;;;1.60;0.88;;;20.80;35.90;;;;;;4996138;28;20339;-62
2024/01/06 09:56:52;;;;;;;1.85;1.05;;;20.80;35.80;;;;;;4999898;28;20528;-68
2024/01/06 09:59:22;;;;;;;1.63;1.00;;;20.80;35.80;;;;;;5001209;28;20101;-63
2024/01/06 10:01:49;;;;;;;1.67;0.90;;;20.90;35.80;;;;;;5004815;28;20049;-61
2024/01/06 10:04:15;;;;;;;1.63;0.93;;;21.00;35.80;;;;;;5012507;28;20034;-65
2024/01/06 10:06:41;;;;;;;1.20;1.00;;;21.10;35.80;;;;;;5009330;28;20033;-63
2024/01/06 10:09:07;;;;;;;1.55;1.05;;;21.10;35.70;;;;;;5001925;28;20445;-64
2024/01/06 10:11:36;;;;;;;1.55;1.00;;;21.30;35.70;;;;;;4997113;28;20045;-66
2024/01/06 10:14:03;;;;;;;1.50;1.20;;;21.30;35.50;;;;;;4995854;28;20058;-69
2024/01/06 10:16:29;;;;;;;1.95;1.10;;;21.40;35.50;;;;;;4994753;28;20026;-64
2024/01/06 10:18:55;;;;;;;1.63;1.10;;;21.40;35.40;;;;;;4997763;28;20080;-63
2024/01/06 10:21:21;;;;;;;1.35;0.90;;;21.50;35.40;;;;;;4999988;28;20036;-64
2024/01/06 10:23:48;;;;;;;1.60;0.95;;;21.50;35.40;;;;;;5006038;28;20111;-67
2024/01/06 10:26:14;;;;;;;2.60;1.20;;;21.50;35.40;;;;;;4975694;28;20434;-64
2024/01/06 10:28:41;;;;;;;1.83;1.20;;;21.60;35.50;;;;;;5003007;28;20109;-60
2024/01/06 10:31:08;;;;;;;1.30;1.05;;;21.60;35.40;;;;;;5007027;28;20041;-62
2024/01/06 10:33:34;;;;;;;1.52;1.08;;;21.70;35.30;;;;;;5005679;28;20033;-66
2024/01/06 10:36:01;;;;;;;1.20;0.93;;;21.70;35.20;;;;;;5005302;28;20137;-62
2024/01/06 10:38:28;;;;;;;1.38;1.02;;;21.70;35.10;;;;;;4996733;28;20396;-61
2024/01/06 10:41:09;;;;;;;1.20;0.95;;;21.80;35.10;;;;;;4998858;28;20027;-59
2024/01/06 10:43:38;;;;;;;1.67;1.20;;;21.80;35.00;;;;;;5001682;28;20029;-68
2024/01/06 10:46:05;;;;;;;2.17;1.10;;;21.80;34.90;;;;;;5007719;28;20092;-64
2024/01/06 10:48:33;;;;;;;2.45;1.10;;;21.80;34.90;;;;;;5006611;28;20453;-63
2024/01/06 10:51:00;;;;;;;1.20;1.00;;;21.80;34.90;;;;;;5003370;28;20045;-65
2024/01/06 10:53:27;;;;;;;1.20;1.00;;;21.90;34.90;;;;;;5004026;28;20023;-63
2024/01/06 10:55:53;;;;;;;1.77;1.30;;;21.90;34.90;;;;;;5010571;28;20044;-64
2024/01/06 10:58:19;;;;;;;1.13;0.93;;;21.90;34.90;;;;;;5004621;28;20045;-58
2024/01/06 11:00:47;;;;;;;1.73;1.20;;;21.90;34.80;;;;;;5005632;28;20031;-62
2024/01/06 11:03:14;;;;;;;1.83;0.90;;;21.90;34.80;;;;;;4992892;28;20053;-65
2024/01/06 11:05:42;;;;;;;0.98;0.73;;;21.90;34.80;;;;;;4995008;28;20084;-62
2024/01/06 11:08:10;;;;;;;1.20;0.90;;;21.90;34.80;;;;;;5002300;28;20026;-64
2024/01/06 11:10:37;;;;;;;1.58;1.00;;;22.00;34.90;;;;;;5003994;28;20026;-61
2024/01/06 11:13:14;;;;;;;1.50;0.90;;;22.00;34.90;;;;;;4996094;28;20057;-63
2024/01/06 11:15:40;;;;;;;1.85;1.17;;;22.00;34.90;;;;;;4996805;28;20052;-61
2024/01/06 11:18:06;;;;;;;1.35;0.80;;;22.00;34.90;;;;;;5002076;28;20084;-62
2024/01/06 11:20:32;;;;;;;1.60;1.00;;;22.00;34.80;;;;;;4999388;28;20030;-65
2024/01/06 11:23:20;;;;;;;2.85;1.20;;;22.00;34.80;;;;;;5007978;28;20116;-62
2024/01/06 11:25:46;;;;;;;1.33;0.95;;;22.00;35.10;;;;;;4999317;28;20437;-62
2024/01/06 11:28:12;;;;;;;1.52;1.00;;;21.90;35.20;;;;;;5006626;28;20034;-62
2024/01/06 11:30:39;;;;;;;1.52;1.10;;;21.90;35.30;;;;;;5003630;28;20473;-62
2024/01/06 11:33:08;;;;;;;2.10;1.30;;;21.80;35.20;;;;;;5002619;28;20037;-61
2024/01/06 11:35:34;;;;;;;1.80;1.20;;;21.70;35.10;;;;;;5001172;28;20393;-61
2024/01/06 11:38:04;;;;;;;1.42;1.20;;;21.70;35.10;;;;;;5004438;28;20087;-60
2024/01/06 11:40:35;;;;;;;1.25;0.90;;;21.60;35.00;;;;;;5003405;28;20034;-59
2024/01/06 11:43:05;;;;;;;1.65;1.05;;;21.60;35.00;;;;;;4999367;28;20029;-59
2024/01/06 11:45:34;;;;;;;2.75;1.30;;;21.60;35.00;;;;;;4997844;28;20475;-59
2024/01/06 11:48:05;;;;;;;1.88;1.40;;;21.60;35.00;;;;;;5002101;28;20420;-59
2024/01/06 11:50:33;;;;;;;2.15;1.23;;;21.50;34.90;;;;;;4997668;28;20099;-59
2024/01/06 11:53:02;;;;;;;1.13;1.00;;;21.50;34.90;;;;;;5004769;28;20042;-60
2024/01/06 11:55:28;;;;;;;1.52;1.30;;;21.40;34.80;;;;;;5004882;28;20480;-60
2024/01/06 11:57:56;;;;;;;1.52;1.27;;;21.40;34.70;;;;;;5002480;28;20432;-59
2024/01/06 12:00:22;;;;;;;1.90;1.08;;;21.40;34.70;;;;;;5002750;28;20023;-60
2024/01/06 12:02:48;;;;;;;1.63;1.08;;;21.40;34.70;;;;;;4998848;28;20113;-59
2024/01/06 12:05:16;;;;;;;1.70;1.05;;;21.30;34.60;;;;;;4999928;28;20113;-59
2024/01/06 12:07:42;;;;;;;1.63;1.02;;;21.30;34.60;;;;;;5001640;28;20045;-61
2024/01/06 12:10:09;;;;;;;1.23;1.00;;;21.30;34.60;;;;;;5002056;28;20112;-59
2024/01/06 12:12:34;;;;;;;1.55;1.20;;;21.30;34.60;;;;;;5000567;28;20054;-60
2024/01/06 12:15:00;;;;;;;1.55;1.00;;;21.20;34.50;;;;;;5005762;28;20064;-59
2024/01/06 12:17:31;;;;;;;1.42;0.93;;;21.30;34.50;;;;;;4999127;28;20335;-60
2024/01/06 12:19:57;;;;;;;1.30;0.88;;;21.30;34.50;;;;;;4994840;28;20438;-59
2024/01/06 12:22:23;;;;;;;1.20;1.00;;;21.20;34.40;;;;;;4994871;28;20038;-59
2024/01/06 12:24:50;;;;;;;2.08;1.10;;;21.20;34.30;;;;;;4996386;28;20084;-59
2024/01/06 12:27:18;;;;;;;1.58;1.27;;;21.20;34.20;;;;;;5000033;28;20084;-62
2024/01/06 12:29:44;;;;;;;1.23;1.00;;;21.20;34.10;;;;;;5011175;28;20692;-58
2024/01/06 12:32:13;;;;;;;1.30;1.10;;;21.20;33.90;;;;;;4999458;28;20058;-59
2024/01/06 12:34:39;;;;;;;1.42;1.10;;;21.20;33.90;;;;;;5003021;28;20125;-56
2024/01/06 12:37:07;;;;;;;1.80;1.30;;;21.10;33.80;;;;;;4998871;28;20533;-58
2024/01/06 12:39:33;;;;;;;1.48;1.02;;;21.10;33.70;;;;;;5013622;28;20421;-60
2024/01/06 12:42:01;;;;;;;1.55;1.05;;;21.10;33.60;;;;;;5005091;28;20109;-56
2024/01/06 12:44:27;;;;;;;1.65;1.33;;;21.10;33.60;;;;;;4999639;28;20042;-58